sensor_id;sensor_type;location;lat;lon;timestamp;pressure;altitude;pressure_sealevel;temperature;humidity
54146;BME280;65909;49.422;7.738;2023-02-15T00:01:23;78665.44;;;-145.25;96.14
54146;BME280;65909;49.422;7.738;2023-02-15T00:03:49;78659.41;;;-145.25;96.47
54146;BME280;65909;49.422;7.738;2023-02-15T00:06:14;78637.34;;;-145.25;96.38
54146;BME280;65909;49.422;7.738;2023-02-15T00:08:40;78609.25;;;-145.25;95.95
54146;BME280;65909;49.422;7.738;2023-02-15T00:11:11;78617.28;;;-145.25;95.38
54146;BME280;65909;49.422;7.738;2023-02-15T00:13:37;78557.09;;;-145.25;94.41
54146;BME280;65909;49.422;7.738;2023-02-15T00:16:06;78543.06;;;-145.25;93.08
54146;BME280;65909;49.422;7.738;2023-02-15T00:18:32;78519.00;;;-145.25;91.69
54146;BME280;65909;49.422;7.738;2023-02-15T00:20:58;78512.97;;;-145.25;90.72
54146;BME280;65909;49.422;7.738;2023-02-15T00:23:27;78506.97;;;-145.25;90.35
54146;BME280;65909;49.422;7.738;2023-02-15T00:26:03;78541.06;;;-145.25;90.83
54146;BME280;65909;49.422;7.738;2023-02-15T00:28:29;78531.03;;;-145.25;91.17
54146;BME280;65909;49.422;7.738;2023-02-15T00:31:02;78573.16;;;-145.25;92.14
54146;BME280;65909;49.422;7.738;2023-02-15T00:33:27;78555.09;;;-145.25;92.09
54146;BME280;65909;49.422;7.738;2023-02-15T00:35:57;78567.13;;;-145.25;92.31
54146;BME280;65909;49.422;7.738;2023-02-15T00:38:22;78605.25;;;-145.25;93.24
54146;BME280;65909;49.422;7.738;2023-02-15T00:40:59;78539.06;;;-145.25;92.04
54146;BME280;65909;49.422;7.738;2023-02-15T00:43:25;78591.22;;;-145.25;92.15
54146;BME280;65909;49.422;7.738;2023-02-15T00:45:51;78607.25;;;-145.25;92.84
54146;BME280;65909;49.422;7.738;2023-02-15T00:48:17;78599.22;;;-145.25;93.68
54146;BME280;65909;49.422;7.738;2023-02-15T00:50:50;78575.16;;;-145.25;93.45
54146;BME280;65909;49.422;7.738;2023-02-15T00:53:16;78541.06;;;-145.25;92.29
54146;BME280;65909;49.422;7.738;2023-02-15T00:55:42;78551.09;;;-145.25;91.87
54146;BME280;65909;49.422;7.738;2023-02-15T00:58:09;78510.97;;;-145.25;91.08
54146;BME280;65909;49.422;7.738;2023-02-15T01:00:35;78508.97;;;-145.25;90.32
54146;BME280;65909;49.422;7.738;2023-02-15T01:03:00;78510.97;;;-145.25;89.44
54146;BME280;65909;49.422;7.738;2023-02-15T01:05:25;78500.94;;;-145.25;89.60
54146;BME280;65909;49.422;7.738;2023-02-15T01:07:51;78521.00;;;-145.25;90.03
54146;BME280;65909;49.422;7.738;2023-02-15T01:10:16;78537.06;;;-145.25;90.26
54146;BME280;65909;49.422;7.738;2023-02-15T01:12:42;78581.19;;;-145.25;91.06
54146;BME280;65909;49.422;7.738;2023-02-15T01:15:07;78561.13;;;-145.25;91.04
54146;BME280;65909;49.422;7.738;2023-02-15T01:17:33;78559.13;;;-145.25;89.85
54146;BME280;65909;49.422;7.738;2023-02-15T01:19:58;78577.16;;;-145.25;90.00
54146;BME280;65909;49.422;7.738;2023-02-15T01:22:25;78599.22;;;-145.25;90.75
54146;BME280;65909;49.422;7.738;2023-02-15T01:24:50;78609.25;;;-145.25;91.25
54146;BME280;65909;49.422;7.738;2023-02-15T01:27:16;78597.22;;;-145.25;91.55
54146;BME280;65909;49.422;7.738;2023-02-15T01:29:41;78579.19;;;-145.25;91.83
54146;BME280;65909;49.422;7.738;2023-02-15T01:32:07;78575.16;;;-145.25;91.47
54146;BME280;65909;49.422;7.738;2023-02-15T01:34:32;78597.22;;;-145.25;91.67
54146;BME280;65909;49.422;7.738;2023-02-15T01:36:57;78583.19;;;-145.25;91.80
54146;BME280;65909;49.422;7.738;2023-02-15T01:39:23;78561.13;;;-145.25;91.64
54146;BME280;65909;49.422;7.738;2023-02-15T01:41:48;78569.16;;;-145.25;91.16
54146;BME280;65909;49.422;7.738;2023-02-15T01:47:57;78605.25;;;-145.25;92.12
54146;BME280;65909;49.422;7.738;2023-02-15T01:50:28;78609.25;;;-145.25;92.71
54146;BME280;65909;49.422;7.738;2023-02-15T01:53:13;78579.19;;;-145.25;92.28
54146;BME280;65909;49.422;7.738;2023-02-15T01:55:49;78577.16;;;-145.25;91.44
54146;BME280;65909;49.422;7.738;2023-02-15T01:58:16;78593.22;;;-145.25;92.48
54146;BME280;65909;49.422;7.738;2023-02-15T02:00:42;78559.13;;;-145.25;92.03
54146;BME280;65909;49.422;7.738;2023-02-15T02:03:08;78551.09;;;-145.25;91.24
54146;BME280;65909;49.422;7.738;2023-02-15T02:05:34;78543.06;;;-145.25;91.29
54146;BME280;65909;49.422;7.738;2023-02-15T02:08:01;78537.06;;;-145.25;91.44
54146;BME280;65909;49.422;7.738;2023-02-15T02:10:27;78535.03;;;-145.25;90.35
54146;BME280;65909;49.422;7.738;2023-02-15T02:12:56;78502.94;;;-145.25;90.10
54146;BME280;65909;49.422;7.738;2023-02-15T02:15:30;78498.94;;;-145.25;89.25
54146;BME280;65909;49.422;7.738;2023-02-15T02:27:17;78510.97;;;-145.25;90.95
54146;BME280;65909;49.422;7.738;2023-02-15T02:35:53;78535.03;;;-145.25;89.47
54146;BME280;65909;49.422;7.738;2023-02-15T02:44:13;78476.88;;;-145.25;88.22
54146;BME280;65909;49.422;7.738;2023-02-15T02:46:57;78470.84;;;-145.25;87.97
54146;BME280;65909;49.422;7.738;2023-02-15T02:49:36;78535.03;;;-145.25;89.62
54146;BME280;65909;49.422;7.738;2023-02-15T02:52:05;78545.06;;;-145.25;90.56
54146;BME280;65909;49.422;7.738;2023-02-15T02:54:33;78535.03;;;-145.25;90.80
54146;BME280;65909;49.422;7.738;2023-02-15T02:57:03;78527.03;;;-145.25;91.05
54146;BME280;65909;49.422;7.738;2023-02-15T02:59:35;78541.06;;;-145.25;91.34
54146;BME280;65909;49.422;7.738;2023-02-15T03:04:40;78484.91;;;-145.25;90.78
54146;BME280;65909;49.422;7.738;2023-02-15T03:07:12;78515.00;;;-145.25;90.37
54146;BME280;65909;49.422;7.738;2023-02-15T03:09:42;78533.03;;;-145.25;91.14
54146;BME280;65909;49.422;7.738;2023-02-15T03:12:13;78541.06;;;-145.25;91.67
54146;BME280;65909;49.422;7.738;2023-02-15T03:14:41;78543.06;;;-145.25;91.93
54146;BME280;65909;49.422;7.738;2023-02-15T03:17:09;78541.06;;;-145.25;92.30
54146;BME280;65909;49.422;7.738;2023-02-15T03:19:37;78551.09;;;-145.25;92.25
54146;BME280;65909;49.422;7.738;2023-02-15T03:22:06;78555.09;;;-145.25;93.17
54146;BME280;65909;49.422;7.738;2023-02-15T03:24:48;78531.03;;;-145.25;92.76
54146;BME280;65909;49.422;7.738;2023-02-15T03:27:23;78515.00;;;-145.25;92.57
54146;BME280;65909;49.422;7.738;2023-02-15T03:29:53;78533.03;;;-145.25;92.27
54146;BME280;65909;49.422;7.738;2023-02-15T03:32:21;78521.00;;;-145.25;92.69
54146;BME280;65909;49.422;7.738;2023-02-15T03:34:48;78539.06;;;-145.25;92.97
54146;BME280;65909;49.422;7.738;2023-02-15T03:39:49;78559.13;;;-145.25;92.55
54146;BME280;65909;49.422;7.738;2023-02-15T03:42:24;78557.09;;;-145.25;93.56
54146;BME280;65909;49.422;7.738;2023-02-15T03:44:59;78557.09;;;-145.25;93.44
54146;BME280;65909;49.422;7.738;2023-02-15T03:47:54;78508.97;;;-145.25;92.74
54146;BME280;65909;49.422;7.738;2023-02-15T03:50:26;78504.97;;;-145.25;91.39
54146;BME280;65909;49.422;7.738;2023-02-15T03:53:14;78517.00;;;-145.25;91.80
54146;BME280;65909;49.422;7.738;2023-02-15T03:55:40;78537.06;;;-145.25;92.47
54146;BME280;65909;49.422;7.738;2023-02-15T03:58:06;78549.09;;;-145.25;92.64
54146;BME280;65909;49.422;7.738;2023-02-15T04:01:05;78529.03;;;-145.25;93.02
54146;BME280;65909;49.422;7.738;2023-02-15T04:04:15;78504.97;;;-145.25;91.41
54146;BME280;65909;49.422;7.738;2023-02-15T04:06:43;78484.91;;;-145.25;90.63
54146;BME280;65909;49.422;7.738;2023-02-15T04:09:08;78502.94;;;-145.25;90.67
54146;BME280;65909;49.422;7.738;2023-02-15T04:11:52;78496.94;;;-145.25;90.79
54146;BME280;65909;49.422;7.738;2023-02-15T04:14:17;78553.09;;;-145.25;91.92
54146;BME280;65909;49.422;7.738;2023-02-15T04:17:07;78539.06;;;-145.25;93.35
54146;BME280;65909;49.422;7.738;2023-02-15T04:19:33;78549.09;;;-145.25;93.12
54146;BME280;65909;49.422;7.738;2023-02-15T04:22:17;78539.06;;;-145.25;93.51
54146;BME280;65909;49.422;7.738;2023-02-15T04:25:01;78500.94;;;-145.25;92.25
54146;BME280;65909;49.422;7.738;2023-02-15T04:27:47;78498.94;;;-145.25;91.71
54146;BME280;65909;49.422;7.738;2023-02-15T04:30:14;78498.94;;;-145.25;91.35
54146;BME280;65909;49.422;7.738;2023-02-15T04:32:40;78533.03;;;-145.25;92.38
54146;BME280;65909;49.422;7.738;2023-02-15T04:35:06;78561.13;;;-145.25;93.40
54146;BME280;65909;49.422;7.738;2023-02-15T04:37:32;78537.06;;;-145.25;93.87
54146;BME280;65909;49.422;7.738;2023-02-15T04:39:58;78527.03;;;-145.25;93.89
54146;BME280;65909;49.422;7.738;2023-02-15T04:42:26;78533.03;;;-145.25;93.41
54146;BME280;65909;49.422;7.738;2023-02-15T04:44:52;78529.03;;;-145.25;93.52
54146;BME280;65909;49.422;7.738;2023-02-15T04:47:18;78543.06;;;-145.25;93.83
54146;BME280;65909;49.422;7.738;2023-02-15T04:49:43;78537.06;;;-145.25;93.92
54146;BME280;65909;49.422;7.738;2023-02-15T04:52:08;78537.06;;;-145.25;93.74
54146;BME280;65909;49.422;7.738;2023-02-15T04:54:34;78557.09;;;-145.25;94.11
54146;BME280;65909;49.422;7.738;2023-02-15T04:56:59;78545.06;;;-145.25;94.41
54146;BME280;65909;49.422;7.738;2023-02-15T04:59:24;78529.03;;;-145.25;93.96
54146;BME280;65909;49.422;7.738;2023-02-15T05:01:50;78525.00;;;-145.25;93.66
54146;BME280;65909;49.422;7.738;2023-02-15T05:04:15;78539.06;;;-145.25;93.59
54146;BME280;65909;49.422;7.738;2023-02-15T05:06:40;78553.09;;;-145.25;94.33
54146;BME280;65909;49.422;7.738;2023-02-15T05:09:06;78539.06;;;-145.25;94.46
54146;BME280;65909;49.422;7.738;2023-02-15T05:11:31;78551.09;;;-145.25;94.52
54146;BME280;65909;49.422;7.738;2023-02-15T05:13:57;78563.13;;;-145.25;95.23
54146;BME280;65909;49.422;7.738;2023-02-15T05:16:22;78539.06;;;-145.25;95.45
54146;BME280;65909;49.422;7.738;2023-02-15T05:18:47;78567.13;;;-145.25;94.98
54146;BME280;65909;49.422;7.738;2023-02-15T05:21:13;78563.13;;;-145.25;96.06
54146;BME280;65909;49.422;7.738;2023-02-15T05:23:38;78527.03;;;-145.25;95.68
54146;BME280;65909;49.422;7.738;2023-02-15T05:26:04;78539.06;;;-145.25;95.18
54146;BME280;65909;49.422;7.738;2023-02-15T05:28:48;78551.09;;;-145.25;95.15
54146;BME280;65909;49.422;7.738;2023-02-15T05:31:16;78547.09;;;-145.25;95.56
54146;BME280;65909;49.422;7.738;2023-02-15T05:33:42;78543.06;;;-145.25;95.75
54146;BME280;65909;49.422;7.738;2023-02-15T05:36:08;78547.09;;;-145.25;95.65
54146;BME280;65909;49.422;7.738;2023-02-15T05:38:34;78533.03;;;-145.25;95.91
54146;BME280;65909;49.422;7.738;2023-02-15T05:40:59;78519.00;;;-145.25;95.55
54146;BME280;65909;49.422;7.738;2023-02-15T05:43:25;78504.97;;;-145.25;95.13
54146;BME280;65909;49.422;7.738;2023-02-15T05:45:53;78541.06;;;-145.25;95.26
54146;BME280;65909;49.422;7.738;2023-02-15T05:48:20;78510.97;;;-145.25;95.98
54146;BME280;65909;49.422;7.738;2023-02-15T05:50:46;78549.09;;;-145.25;96.44
54146;BME280;65909;49.422;7.738;2023-02-15T05:53:11;78551.09;;;-145.25;96.90
54146;BME280;65909;49.422;7.738;2023-02-15T05:55:38;78549.09;;;-145.25;97.59
54146;BME280;65909;49.422;7.738;2023-02-15T05:58:04;78537.06;;;-145.25;97.70
54146;BME280;65909;49.422;7.738;2023-02-15T06:00:29;78557.09;;;-145.25;97.95
54146;BME280;65909;49.422;7.738;2023-02-15T06:02:55;78523.00;;;-145.25;98.49
54146;BME280;65909;49.422;7.738;2023-02-15T06:05:20;78533.03;;;-145.25;98.51
54146;BME280;65909;49.422;7.738;2023-02-15T06:07:45;78541.06;;;-145.25;98.39
54146;BME280;65909;49.422;7.738;2023-02-15T06:10:11;78533.03;;;-145.25;98.87
54146;BME280;65909;49.422;7.738;2023-02-15T06:12:36;78519.00;;;-145.25;98.64
54146;BME280;65909;49.422;7.738;2023-02-15T06:15:02;78531.03;;;-145.25;98.50
54146;BME280;65909;49.422;7.738;2023-02-15T06:17:27;78555.09;;;-145.25;98.92
54146;BME280;65909;49.422;7.738;2023-02-15T06:19:52;78527.03;;;-145.25;99.28
54146;BME280;65909;49.422;7.738;2023-02-15T06:22:18;78533.03;;;-145.25;99.38
54146;BME280;65909;49.422;7.738;2023-02-15T06:24:43;78510.97;;;-145.25;99.21
54146;BME280;65909;49.422;7.738;2023-02-15T06:27:09;78508.97;;;-145.25;98.92
54146;BME280;65909;49.422;7.738;2023-02-15T06:29:35;78525.00;;;-145.25;98.69
54146;BME280;65909;49.422;7.738;2023-02-15T06:32:01;78531.03;;;-145.25;99.11
54146;BME280;65909;49.422;7.738;2023-02-15T06:34:26;78527.03;;;-145.25;99.56
54146;BME280;65909;49.422;7.738;2023-02-15T06:36:51;78510.97;;;-145.25;99.35
54146;BME280;65909;49.422;7.738;2023-02-15T06:39:17;78498.94;;;-145.25;98.89
54146;BME280;65909;49.422;7.738;2023-02-15T06:41:42;78517.00;;;-145.25;98.72
54146;BME280;65909;49.422;7.738;2023-02-15T06:44:07;78519.00;;;-145.25;99.13
54146;BME280;65909;49.422;7.738;2023-02-15T06:46:33;78508.97;;;-145.25;98.90
54146;BME280;65909;49.422;7.738;2023-02-15T06:48:58;78500.94;;;-145.25;99.04
54146;BME280;65909;49.422;7.738;2023-02-15T06:51:24;78506.97;;;-145.25;98.73
54146;BME280;65909;49.422;7.738;2023-02-15T06:53:49;78484.91;;;-145.25;98.24
54146;BME280;65909;49.422;7.738;2023-02-15T06:56:14;78488.91;;;-145.25;97.87
54146;BME280;65909;49.422;7.738;2023-02-15T06:58:41;78515.00;;;-145.25;98.15
54146;BME280;65909;49.422;7.738;2023-02-15T07:01:08;78521.00;;;-145.25;99.03
54146;BME280;65909;49.422;7.738;2023-02-15T07:03:34;78517.00;;;-145.25;99.05
54146;BME280;65909;49.422;7.738;2023-02-15T07:06:01;78517.00;;;-145.25;99.20
54146;BME280;65909;49.422;7.738;2023-02-15T07:08:28;78523.00;;;-145.25;99.34
54146;BME280;65909;49.422;7.738;2023-02-15T07:10:55;78515.00;;;-145.25;99.41
54146;BME280;65909;49.422;7.738;2023-02-15T07:13:41;78537.06;;;-145.25;99.79
54146;BME280;65909;49.422;7.738;2023-02-15T07:16:08;78519.00;;;-145.25;99.99
54146;BME280;65909;49.422;7.738;2023-02-15T07:18:33;78502.94;;;-145.25;99.93
54146;BME280;65909;49.422;7.738;2023-02-15T07:20:58;78515.00;;;-145.25;99.63
54146;BME280;65909;49.422;7.738;2023-02-15T07:23:24;78523.00;;;-145.25;99.64
54146;BME280;65909;49.422;7.738;2023-02-15T07:25:57;78508.97;;;-145.25;99.58
54146;BME280;65909;49.422;7.738;2023-02-15T07:28:22;78510.97;;;-145.25;99.37
54146;BME280;65909;49.422;7.738;2023-02-15T07:30:47;78498.94;;;-145.25;99.12
54146;BME280;65909;49.422;7.738;2023-02-15T07:33:13;78515.00;;;-145.25;99.07
54146;BME280;65909;49.422;7.738;2023-02-15T07:35:57;78519.00;;;-145.25;99.66
54146;BME280;65909;49.422;7.738;2023-02-15T07:38:24;78515.00;;;-145.25;100.00
54146;BME280;65909;49.422;7.738;2023-02-15T07:40:49;78517.00;;;-145.25;100.00
54146;BME280;65909;49.422;7.738;2023-02-15T07:43:14;78519.00;;;-145.25;100.00
54146;BME280;65909;49.422;7.738;2023-02-15T07:45:40;78512.97;;;-145.25;100.00
54146;BME280;65909;49.422;7.738;2023-02-15T07:48:06;78525.00;;;-145.25;100.00
54146;BME280;65909;49.422;7.738;2023-02-15T07:50:32;78510.97;;;-145.25;100.00
54146;BME280;65909;49.422;7.738;2023-02-15T07:52:58;78506.97;;;-145.25;100.00
54146;BME280;65909;49.422;7.738;2023-02-15T07:55:24;78510.97;;;-145.25;100.00
54146;BME280;65909;49.422;7.738;2023-02-15T07:57:50;78506.97;;;-145.25;100.00
54146;BME280;65909;49.422;7.738;2023-02-15T08:00:17;78504.97;;;-145.25;100.00
54146;BME280;65909;49.422;7.738;2023-02-15T08:02:50;78508.97;;;-145.25;100.00
54146;BME280;65909;49.422;7.738;2023-02-15T08:05:36;78517.00;;;-145.25;100.00
54146;BME280;65909;49.422;7.738;2023-02-15T08:08:01;78510.97;;;-145.25;100.00
54146;BME280;65909;49.422;7.738;2023-02-15T08:10:27;78506.97;;;-145.25;100.00
54146;BME280;65909;49.422;7.738;2023-02-15T08:13:12;78504.97;;;-145.25;100.00
54146;BME280;65909;49.422;7.738;2023-02-15T08:15:38;78482.88;;;-145.25;100.00
54146;BME280;65909;49.422;7.738;2023-02-15T08:18:03;78519.00;;;-145.25;100.00
54146;BME280;65909;49.422;7.738;2023-02-15T08:20:29;78527.03;;;-145.25;100.00
54146;BME280;65909;49.422;7.738;2023-02-15T08:22:54;78500.94;;;-145.25;100.00
54146;BME280;65909;49.422;7.738;2023-02-15T08:25:19;78506.97;;;-145.25;100.00
54146;BME280;65909;49.422;7.738;2023-02-15T08:27:45;78506.97;;;-145.25;100.00
54146;BME280;65909;49.422;7.738;2023-02-15T08:30:10;78504.97;;;-145.25;100.00
54146;BME280;65909;49.422;7.738;2023-02-15T08:32:36;78500.94;;;-145.25;100.00
54146;BME280;65909;49.422;7.738;2023-02-15T08:35:02;78502.94;;;-145.25;100.00
54146;BME280;65909;49.422;7.738;2023-02-15T08:37:27;78506.97;;;-145.25;100.00
54146;BME280;65909;49.422;7.738;2023-02-15T08:39:52;78512.97;;;-145.25;100.00
54146;BME280;65909;49.422;7.738;2023-02-15T08:42:18;78510.97;;;-145.25;100.00
54146;BME280;65909;49.422;7.738;2023-02-15T08:44:45;78500.94;;;-145.25;100.00
54146;BME280;65909;49.422;7.738;2023-02-15T08:47:11;78498.94;;;-145.25;100.00
54146;BME280;65909;49.422;7.738;2023-02-15T08:49:37;78498.94;;;-145.25;100.00
54146;BME280;65909;49.422;7.738;2023-02-15T08:52:02;78488.91;;;-145.25;100.00
54146;BME280;65909;49.422;7.738;2023-02-15T08:54:28;78510.97;;;-145.25;100.00
54146;BME280;65909;49.422;7.738;2023-02-15T08:56:53;78510.97;;;-145.25;100.00
54146;BME280;65909;49.422;7.738;2023-02-15T08:59:20;78498.94;;;-145.25;100.00
54146;BME280;65909;49.422;7.738;2023-02-15T09:01:48;78494.94;;;-145.25;100.00
54146;BME280;65909;49.422;7.738;2023-02-15T09:04:14;78496.94;;;-145.25;100.00
54146;BME280;65909;49.422;7.738;2023-02-15T09:06:42;78504.97;;;-145.25;100.00
54146;BME280;65909;49.422;7.738;2023-02-15T09:09:10;78496.94;;;-145.25;100.00
54146;BME280;65909;49.422;7.738;2023-02-15T09:11:41;78486.91;;;-145.25;99.94
54146;BME280;65909;49.422;7.738;2023-02-15T09:14:14;78490.91;;;-145.25;100.00
54146;BME280;65909;49.422;7.738;2023-02-15T09:16:42;78496.94;;;-145.25;100.00
54146;BME280;65909;49.422;7.738;2023-02-15T09:19:07;78490.91;;;-145.25;100.00
54146;BME280;65909;49.422;7.738;2023-02-15T09:21:36;78488.91;;;-145.25;99.91
54146;BME280;65909;49.422;7.738;2023-02-15T09:24:10;78492.91;;;-145.25;99.89
54146;BME280;65909;49.422;7.738;2023-02-15T09:26:38;78488.91;;;-145.25;99.61
54146;BME280;65909;49.422;7.738;2023-02-15T09:29:05;78480.88;;;-145.25;98.93
54146;BME280;65909;49.422;7.738;2023-02-15T09:31:33;78494.94;;;-145.25;98.47
54146;BME280;65909;49.422;7.738;2023-02-15T09:34:00;78494.94;;;-145.25;98.61
54146;BME280;65909;49.422;7.738;2023-02-15T09:36:28;78478.88;;;-145.25;98.87
54146;BME280;65909;49.422;7.738;2023-02-15T09:39:11;78480.88;;;-145.25;98.18
54146;BME280;65909;49.422;7.738;2023-02-15T09:50:03;78484.91;;;-145.25;97.41
54146;BME280;65909;49.422;7.738;2023-02-15T09:55:03;78500.94;;;-145.25;97.17
54146;BME280;65909;49.422;7.738;2023-02-15T09:57:44;78500.94;;;-145.25;97.05
54146;BME280;65909;49.422;7.738;2023-02-15T10:03:19;78529.03;;;-145.25;98.09
54146;BME280;65909;49.422;7.738;2023-02-15T10:06:11;78508.97;;;-145.25;97.87
54146;BME280;65909;49.422;7.738;2023-02-15T10:25:31;78529.03;;;-145.25;96.87
54146;BME280;65909;49.422;7.738;2023-02-15T10:28:19;78525.00;;;-145.25;96.69
54146;BME280;65909;49.422;7.738;2023-02-15T10:30:50;78531.03;;;-145.25;96.10
54146;BME280;65909;49.422;7.738;2023-02-15T10:33:38;78523.00;;;-145.25;95.65
54146;BME280;65909;49.422;7.738;2023-02-15T10:39:02;78527.03;;;-145.25;94.85
54146;BME280;65909;49.422;7.738;2023-02-15T10:41:54;78541.06;;;-145.25;94.50
54146;BME280;65909;49.422;7.738;2023-02-15T10:49:55;78496.94;;;-145.25;93.14
54146;BME280;65909;49.422;7.738;2023-02-15T10:52:48;78510.97;;;-145.25;93.17
54146;BME280;65909;49.422;7.738;2023-02-15T10:55:39;78504.97;;;-145.25;92.94
54146;BME280;65909;49.422;7.738;2023-02-15T11:01:18;78494.94;;;-145.25;91.75
54146;BME280;65909;49.422;7.738;2023-02-15T11:06:41;78494.94;;;-145.25;91.22
54146;BME280;65909;49.422;7.738;2023-02-15T11:09:13;78476.88;;;-145.25;91.25
54146;BME280;65909;49.422;7.738;2023-02-15T11:11:41;78462.84;;;-145.25;90.34
54146;BME280;65909;49.422;7.738;2023-02-15T11:14:15;78446.78;;;-145.25;90.38
54146;BME280;65909;49.422;7.738;2023-02-15T11:16:45;78454.81;;;-145.25;90.24
54146;BME280;65909;49.422;7.738;2023-02-15T11:19:21;78486.91;;;-145.25;91.09
54146;BME280;65909;49.422;7.738;2023-02-15T11:21:50;78458.81;;;-145.25;91.09
54146;BME280;65909;49.422;7.738;2023-02-15T11:24:20;78450.81;;;-145.25;90.86
54146;BME280;65909;49.422;7.738;2023-02-15T11:27:05;78454.81;;;-145.25;90.35
54146;BME280;65909;49.422;7.738;2023-02-15T11:29:44;78438.75;;;-145.25;89.44
54146;BME280;65909;49.422;7.738;2023-02-15T11:32:44;78474.88;;;-145.25;89.62
54146;BME280;65909;49.422;7.738;2023-02-15T11:35:18;78496.94;;;-145.25;90.78
54146;BME280;65909;49.422;7.738;2023-02-15T11:37:48;78494.94;;;-145.25;90.94
54146;BME280;65909;49.422;7.738;2023-02-15T11:42:47;78456.81;;;-145.25;90.63
54146;BME280;65909;49.422;7.738;2023-02-15T11:45:21;78472.88;;;-145.25;90.59
54146;BME280;65909;49.422;7.738;2023-02-15T11:47:48;78452.81;;;-145.25;90.96
54146;BME280;65909;49.422;7.738;2023-02-15T11:50:24;78450.81;;;-145.25;90.84
54146;BME280;65909;49.422;7.738;2023-02-15T11:52:52;78442.78;;;-145.25;90.93
54146;BME280;65909;49.422;7.738;2023-02-15T11:55:21;78434.75;;;-145.25;91.01
54146;BME280;65909;49.422;7.738;2023-02-15T12:00:42;78402.66;;;-145.25;89.95
54146;BME280;65909;49.422;7.738;2023-02-15T12:03:18;78392.63;;;-145.25;89.88
54146;BME280;65909;49.422;7.738;2023-02-15T12:05:49;78386.63;;;-145.25;89.57
54146;BME280;65909;49.422;7.738;2023-02-15T12:08:20;78374.56;;;-145.25;89.63
54146;BME280;65909;49.422;7.738;2023-02-15T12:11:09;78362.53;;;-145.25;89.66
54146;BME280;65909;49.422;7.738;2023-02-15T12:14:04;78336.47;;;-145.25;88.92
54146;BME280;65909;49.422;7.738;2023-02-15T12:16:53;78366.56;;;-145.25;88.60
54146;BME280;65909;49.422;7.738;2023-02-15T12:19:38;78394.63;;;-145.25;89.40
54146;BME280;65909;49.422;7.738;2023-02-15T12:22:06;78362.53;;;-145.25;89.38
54146;BME280;65909;49.422;7.738;2023-02-15T12:24:47;78368.56;;;-145.25;88.98
54146;BME280;65909;49.422;7.738;2023-02-15T12:27:19;78352.50;;;-145.25;88.97
54146;BME280;65909;49.422;7.738;2023-02-15T12:30:06;78358.53;;;-145.25;88.95
54146;BME280;65909;49.422;7.738;2023-02-15T12:32:46;78370.56;;;-145.25;89.06
54146;BME280;65909;49.422;7.738;2023-02-15T12:37:56;78330.44;;;-145.25;88.83
54146;BME280;65909;49.422;7.738;2023-02-15T12:40:26;78358.53;;;-145.25;88.85
54146;BME280;65909;49.422;7.738;2023-02-15T12:42:53;78356.53;;;-145.25;89.35
54146;BME280;65909;49.422;7.738;2023-02-15T12:45:27;78364.56;;;-145.25;90.00
54146;BME280;65909;49.422;7.738;2023-02-15T12:48:17;78354.53;;;-145.25;89.77
54146;BME280;65909;49.422;7.738;2023-02-15T12:50:48;78346.50;;;-145.25;89.54
54146;BME280;65909;49.422;7.738;2023-02-15T12:53:18;78298.34;;;-145.25;88.17
54146;BME280;65909;49.422;7.738;2023-02-15T12:55:58;78322.44;;;-145.25;87.85
54146;BME280;65909;49.422;7.738;2023-02-15T12:58:28;78302.38;;;-145.25;87.50
54146;BME280;65909;49.422;7.738;2023-02-15T13:03:33;78282.31;;;-145.25;86.62
54146;BME280;65909;49.422;7.738;2023-02-15T13:06:00;78278.31;;;-145.25;86.72
54146;BME280;65909;49.422;7.738;2023-02-15T13:08:28;78290.34;;;-145.25;86.85
54146;BME280;65909;49.422;7.738;2023-02-15T13:11:03;78270.28;;;-145.25;86.53
54146;BME280;65909;49.422;7.738;2023-02-15T13:13:32;78268.28;;;-145.25;86.28
54146;BME280;65909;49.422;7.738;2023-02-15T13:16:09;78236.19;;;-145.25;86.27
54146;BME280;65909;49.422;7.738;2023-02-15T13:18:38;78262.25;;;-145.25;86.23
54146;BME280;65909;49.422;7.738;2023-02-15T13:21:14;78252.22;;;-145.25;86.58
54146;BME280;65909;49.422;7.738;2023-02-15T13:23:44;78240.19;;;-145.25;86.71
54146;BME280;65909;49.422;7.738;2023-02-15T13:26:15;78218.13;;;-145.25;85.97
54146;BME280;65909;49.422;7.738;2023-02-15T13:28:49;78202.09;;;-145.25;85.14
54146;BME280;65909;49.422;7.738;2023-02-15T13:31:23;78202.09;;;-145.25;84.61
54146;BME280;65909;49.422;7.738;2023-02-15T13:33:55;78174.00;;;-145.25;84.62
54146;BME280;65909;49.422;7.738;2023-02-15T13:42:35;78232.16;;;-145.25;86.34
54146;BME280;65909;49.422;7.738;2023-02-15T13:45:02;78214.13;;;-145.25;86.15
54146;BME280;65909;49.422;7.738;2023-02-15T13:50:16;78226.16;;;-145.25;86.31
54146;BME280;65909;49.422;7.738;2023-02-15T13:58:32;78188.03;;;-145.25;85.66
54146;BME280;65909;49.422;7.738;2023-02-15T14:03:51;78178.00;;;-145.25;85.42
54146;BME280;65909;49.422;7.738;2023-02-15T14:09:02;78161.97;;;-145.25;85.84
54146;BME280;65909;49.422;7.738;2023-02-15T14:17:21;78157.97;;;-145.25;86.26
54146;BME280;65909;49.422;7.738;2023-02-15T14:20:00;78155.94;;;-145.25;85.84
54146;BME280;65909;49.422;7.738;2023-02-15T14:22:47;78161.97;;;-145.25;86.32
54146;BME280;65909;49.422;7.738;2023-02-15T14:25:30;78147.94;;;-145.25;86.36
54146;BME280;65909;49.422;7.738;2023-02-15T14:28:28;78151.94;;;-145.25;86.20
54146;BME280;65909;49.422;7.738;2023-02-15T14:30:56;78137.91;;;-145.25;85.91
54146;BME280;65909;49.422;7.738;2023-02-15T14:33:31;78107.81;;;-145.25;84.84
54146;BME280;65909;49.422;7.738;2023-02-15T14:35:59;78129.88;;;-145.25;84.88
54146;BME280;65909;49.422;7.738;2023-02-15T14:41:22;78153.94;;;-145.25;85.82
54146;BME280;65909;49.422;7.738;2023-02-15T14:49:22;78159.97;;;-145.25;86.30
54146;BME280;65909;49.422;7.738;2023-02-15T14:59:43;78133.88;;;-145.25;86.07
54146;BME280;65909;49.422;7.738;2023-02-15T15:04:41;78101.78;;;-145.25;85.36